createdAt,value
2022-07-25T00:01:55.269Z,13.63
2022-07-25T00:04:24.396Z,14.77
2022-07-25T00:06:51.900Z,13.53
2022-07-25T00:09:18.939Z,14.87
2022-07-25T00:11:46.120Z,13.93
2022-07-25T00:14:13.179Z,14.30
2022-07-25T00:16:40.274Z,14.67
2022-07-25T00:19:07.524Z,15.57
2022-07-25T00:21:34.608Z,15.93
2022-07-25T00:24:01.945Z,16.57
2022-07-25T00:26:29.046Z,14.40
2022-07-25T00:28:56.080Z,20.07
2022-07-25T00:31:23.249Z,14.33
2022-07-25T00:33:50.224Z,14.00
2022-07-25T00:36:17.264Z,14.90
2022-07-25T00:38:44.354Z,15.00
2022-07-25T00:41:11.619Z,14.13
2022-07-25T00:43:38.620Z,15.33
2022-07-25T00:46:05.963Z,13.13
2022-07-25T00:48:35.773Z,14.70
2022-07-25T00:51:02.969Z,14.07
2022-07-25T00:53:29.984Z,13.70
2022-07-25T00:55:57.912Z,15.03
2022-07-25T00:58:25.029Z,14.13
2022-07-25T01:00:52.088Z,13.30
2022-07-25T01:03:19.562Z,13.27
2022-07-25T01:05:50.295Z,14.20
2022-07-25T01:08:22.377Z,15.13
2022-07-25T01:10:50.036Z,14.43
2022-07-25T01:13:17.604Z,16.07
2022-07-25T01:15:44.885Z,16.57
2022-07-25T01:18:12.116Z,15.90
2022-07-25T01:20:39.362Z,15.93
2022-07-25T01:23:06.339Z,15.87
2022-07-25T01:25:33.504Z,16.53
2022-07-25T01:28:00.540Z,16.07
2022-07-25T01:30:27.596Z,14.57
2022-07-25T01:32:54.621Z,15.73
2022-07-25T01:35:21.736Z,14.63
2022-07-25T01:37:49.184Z,14.57
2022-07-25T01:40:16.632Z,14.77
2022-07-25T01:42:44.241Z,14.80
2022-07-25T01:45:13.236Z,14.33
2022-07-25T01:47:41.509Z,14.03
2022-07-25T01:50:10.093Z,15.90
2022-07-25T01:52:39.841Z,16.63
2022-07-25T01:55:07.856Z,14.60
2022-07-25T01:57:36.147Z,15.30
2022-07-25T02:00:06.578Z,14.63
2022-07-25T02:02:34.054Z,14.47
2022-07-25T02:05:01.449Z,14.70
2022-07-25T02:07:28.695Z,15.17
2022-07-25T02:09:57.007Z,15.80
2022-07-25T02:12:24.259Z,17.27
2022-07-25T02:14:51.510Z,16.37
2022-07-25T02:17:18.761Z,15.33
2022-07-25T02:19:45.999Z,14.70
2022-07-25T02:22:13.435Z,17.50
2022-07-25T02:24:40.726Z,16.53
2022-07-25T02:27:08.623Z,14.27
2022-07-25T02:29:35.912Z,15.37
2022-07-25T02:32:03.574Z,14.83
2022-07-25T02:34:30.619Z,14.23
2022-07-25T02:36:57.784Z,16.90
2022-07-25T02:39:25.526Z,15.47
2022-07-25T02:41:52.474Z,15.10
2022-07-25T02:44:19.583Z,15.20
2022-07-25T02:46:46.548Z,15.40
2022-07-25T02:49:14.287Z,16.37
2022-07-25T02:51:41.669Z,16.30
2022-07-25T02:54:08.721Z,14.90
2022-07-25T02:56:35.796Z,14.80
2022-07-25T02:59:02.780Z,15.07
2022-07-25T03:01:30.607Z,15.83
2022-07-25T03:03:57.746Z,16.03
2022-07-25T03:06:24.946Z,15.87
2022-07-25T03:08:52.063Z,17.63
2022-07-25T03:11:19.955Z,16.37
2022-07-25T03:13:46.965Z,18.00
2022-07-25T03:16:14.049Z,16.40
2022-07-25T03:18:41.119Z,15.83
2022-07-25T03:21:08.443Z,16.37
2022-07-25T03:23:35.417Z,17.27
2022-07-25T03:26:02.479Z,17.50
2022-07-25T03:28:29.504Z,20.03
2022-07-25T03:30:56.640Z,18.40
2022-07-25T03:33:23.724Z,15.83
2022-07-25T03:35:50.713Z,17.80
2022-07-25T03:38:17.745Z,18.10
2022-07-25T03:40:45.054Z,19.13
2022-07-25T03:43:12.064Z,19.33
2022-07-25T03:45:39.621Z,19.77
2022-07-25T03:48:07.009Z,19.10
2022-07-25T03:50:34.154Z,18.60
2022-07-25T03:53:01.203Z,18.73
2022-07-25T03:55:28.329Z,18.47
2022-07-25T03:57:55.315Z,19.00
2022-07-25T04:00:23.527Z,19.67
2022-07-25T04:02:50.604Z,19.70
2022-07-25T04:05:17.673Z,20.23
2022-07-25T04:07:45.155Z,18.50
2022-07-25T04:10:12.278Z,19.57
2022-07-25T04:12:39.279Z,18.13
2022-07-25T04:15:07.520Z,19.67
2022-07-25T04:17:34.828Z,19.90
2022-07-25T04:20:07.508Z,20.30
2022-07-25T04:22:35.557Z,20.07
2022-07-25T04:25:03.180Z,20.20
2022-07-25T04:27:30.210Z,21.07
2022-07-25T04:29:57.296Z,19.80
2022-07-25T04:32:24.370Z,20.10
2022-07-25T04:34:52.556Z,19.43
2022-07-25T04:37:19.625Z,20.63
2022-07-25T04:39:46.604Z,20.83
2022-07-25T04:42:13.582Z,18.67
2022-07-25T04:44:40.604Z,21.07
2022-07-25T04:47:07.891Z,22.13
2022-07-25T04:49:34.858Z,21.13
2022-07-25T04:52:01.801Z,23.67
2022-07-25T04:54:29.427Z,20.70
2022-07-25T04:56:56.386Z,18.23
2022-07-25T04:59:23.434Z,18.53
2022-07-25T05:01:50.508Z,18.10
2022-07-25T05:04:17.904Z,18.30
2022-07-25T05:06:44.884Z,18.17
2022-07-25T05:09:11.964Z,19.13
2022-07-25T05:11:41.503Z,18.33
2022-07-25T05:14:12.290Z,17.87
2022-07-25T05:16:39.495Z,17.67
2022-07-25T05:19:06.623Z,17.97
2022-07-25T05:21:33.614Z,18.60
2022-07-25T05:24:00.693Z,16.80
2022-07-25T05:26:27.731Z,17.47
2022-07-25T05:28:54.688Z,17.20
2022-07-25T05:31:21.767Z,16.60
2022-07-25T05:33:48.883Z,15.40
2022-07-25T05:36:17.018Z,15.13
2022-07-25T05:38:44.218Z,14.63
2022-07-25T05:41:11.347Z,13.23
2022-07-25T05:43:38.404Z,13.70
2022-07-25T05:46:06.483Z,13.33
2022-07-25T05:48:33.544Z,12.47
2022-07-25T05:51:00.562Z,12.13
2022-07-25T05:53:27.629Z,11.67
2022-07-25T05:55:54.923Z,12.47
2022-07-25T05:58:25.010Z,11.70
2022-07-25T06:00:56.638Z,11.67
2022-07-25T06:03:23.706Z,10.93
2022-07-25T06:05:50.749Z,10.47
2022-07-25T06:08:17.864Z,12.40
2022-07-25T06:10:44.898Z,11.83
2022-07-25T06:13:12.150Z,11.73
2022-07-25T06:15:39.643Z,11.60
2022-07-25T06:18:06.678Z,10.60
2022-07-25T06:20:33.714Z,11.10
2022-07-25T06:23:01.285Z,9.40
2022-07-25T06:25:28.294Z,11.67
2022-07-25T06:27:55.274Z,9.70
2022-07-25T06:30:22.340Z,9.90
2022-07-25T06:32:50.225Z,9.33
2022-07-25T06:35:18.472Z,10.03
2022-07-25T06:37:46.134Z,10.10
2022-07-25T06:40:14.670Z,9.87
2022-07-25T06:42:45.118Z,8.73
2022-07-25T06:45:14.462Z,9.63
2022-07-25T06:47:43.976Z,9.43
2022-07-25T06:50:16.656Z,10.27
2022-07-25T06:52:43.732Z,10.33
2022-07-25T06:55:13.896Z,10.37
2022-07-25T06:57:42.624Z,8.57
2022-07-25T07:00:14.738Z,10.20
2022-07-25T07:02:58.854Z,9.57
2022-07-25T07:05:32.054Z,9.60
2022-07-25T07:08:00.270Z,9.50
2022-07-25T07:10:28.708Z,10.43
2022-07-25T07:13:15.359Z,9.60
2022-07-25T07:15:50.403Z,9.83
2022-07-25T07:18:19.469Z,8.57
2022-07-25T07:20:47.515Z,9.07
2022-07-25T07:23:16.900Z,9.60
2022-07-25T07:25:47.297Z,9.03
2022-07-25T07:28:15.104Z,9.40
2022-07-25T07:33:29.538Z,9.30
2022-07-25T07:35:57.281Z,8.20
2022-07-25T07:38:25.672Z,8.90
2022-07-25T07:40:54.532Z,9.13
2022-07-25T07:43:26.262Z,9.77
2022-07-25T07:45:57.254Z,9.13
2022-07-25T07:48:24.977Z,9.30
2022-07-25T07:50:52.019Z,8.60
2022-07-25T07:53:19.114Z,9.77
2022-07-25T07:55:46.734Z,9.00
2022-07-25T07:58:19.253Z,8.80
2022-07-25T08:00:51.759Z,9.33
2022-07-25T08:03:21.504Z,9.77
2022-07-25T08:05:49.633Z,11.10
2022-07-25T08:08:17.359Z,9.97
2022-07-25T08:10:48.655Z,9.70
2022-07-25T08:13:22.819Z,8.63
2022-07-25T08:15:54.142Z,9.27
2022-07-25T08:18:21.244Z,9.43
2022-07-25T08:20:49.264Z,10.17
2022-07-25T08:23:17.074Z,9.20
2022-07-25T08:25:45.736Z,9.63
2022-07-25T08:28:13.890Z,9.57
2022-07-25T08:30:42.167Z,9.90
2022-07-25T08:33:18.795Z,9.00
2022-07-25T08:35:55.993Z,9.00
2022-07-25T08:38:25.186Z,9.20
2022-07-25T08:40:54.160Z,9.30
2022-07-25T08:43:21.822Z,9.00
2022-07-25T08:45:54.334Z,9.87
2022-07-25T08:48:25.944Z,10.70
2022-07-25T08:50:57.280Z,8.50
2022-07-25T08:53:34.558Z,10.60
2022-07-25T08:56:11.543Z,9.50
2022-07-25T08:58:41.691Z,9.20
2022-07-25T09:01:10.834Z,9.33
2022-07-25T09:03:39.043Z,10.00
2022-07-25T09:06:22.780Z,9.80
2022-07-25T09:08:52.824Z,10.10
2022-07-25T09:11:35.070Z,10.50
2022-07-25T09:14:09.206Z,10.67
2022-07-25T09:16:44.401Z,9.63
2022-07-25T09:19:18.725Z,10.10
2022-07-25T09:22:00.324Z,9.80
2022-07-25T09:24:28.803Z,10.90
2022-07-25T09:26:59.931Z,9.60
2022-07-25T09:29:33.952Z,9.37
2022-07-25T09:32:13.383Z,9.73
2022-07-25T09:34:43.219Z,10.13
2022-07-25T09:37:13.286Z,10.20
2022-07-25T09:39:51.804Z,10.00
2022-07-25T09:42:24.573Z,9.93
2022-07-25T09:45:17.568Z,10.23
2022-07-25T09:47:53.289Z,11.70
2022-07-25T09:50:22.623Z,10.27
2022-07-25T09:52:57.418Z,10.33
2022-07-25T09:55:25.302Z,10.67
2022-07-25T09:57:52.872Z,10.20
2022-07-25T10:00:28.923Z,10.37
2022-07-25T10:02:55.994Z,8.70
2022-07-25T10:05:47.818Z,9.70
2022-07-25T10:08:15.443Z,10.00
2022-07-25T10:10:43.061Z,9.47
2022-07-25T10:13:18.210Z,10.43
2022-07-25T10:15:53.344Z,9.17
2022-07-25T10:18:29.509Z,9.00
2022-07-25T10:21:25.141Z,9.20
2022-07-25T10:24:09.539Z,9.57
2022-07-25T10:26:52.122Z,9.40
2022-07-25T10:29:19.266Z,9.33
2022-07-25T10:31:51.217Z,8.87
2022-07-25T10:34:33.561Z,8.80
2022-07-25T10:37:16.807Z,9.97
2022-07-25T10:39:45.859Z,9.20
2022-07-25T10:42:15.517Z,9.87
2022-07-25T10:45:09.588Z,10.20
2022-07-25T10:47:43.166Z,9.80
2022-07-25T10:50:34.608Z,9.47
2022-07-25T10:53:01.090Z,9.30
2022-07-25T10:55:29.763Z,10.27
2022-07-25T10:58:21.631Z,9.60
2022-07-25T11:00:48.737Z,9.37
2022-07-25T11:03:18.379Z,9.93
2022-07-25T11:05:47.469Z,8.10
2022-07-25T11:08:22.847Z,9.73
2022-07-25T11:10:53.643Z,10.67
2022-07-25T11:13:21.445Z,10.00
2022-07-25T11:15:49.027Z,9.30
2022-07-25T11:18:18.785Z,10.03
2022-07-25T11:20:45.828Z,8.77
2022-07-25T11:23:12.867Z,9.30
2022-07-25T11:25:42.557Z,10.10
2022-07-25T11:28:10.307Z,9.60
2022-07-25T11:30:37.378Z,9.07
2022-07-25T11:33:04.919Z,9.30
2022-07-25T11:35:33.887Z,9.67
2022-07-25T11:38:03.397Z,9.97
2022-07-25T11:40:32.945Z,8.07
2022-07-25T11:43:00.518Z,9.70
2022-07-25T11:45:30.947Z,9.93
2022-07-25T11:48:08.157Z,10.57
2022-07-25T11:50:39.280Z,10.07
2022-07-25T11:53:10.598Z,10.73
2022-07-25T11:55:43.551Z,10.20
2022-07-25T11:58:13.740Z,9.90
2022-07-25T12:00:47.923Z,9.97
2022-07-25T12:03:20.299Z,9.70
2022-07-25T12:05:49.230Z,8.60
2022-07-25T12:08:23.494Z,9.27
2022-07-25T12:10:51.825Z,10.00
2022-07-25T12:13:29.890Z,10.77
2022-07-25T12:15:59.370Z,11.10
2022-07-25T12:18:27.742Z,9.77
2022-07-25T12:20:54.849Z,9.77
2022-07-25T12:23:22.307Z,11.53
2022-07-25T12:25:49.985Z,10.10
2022-07-25T12:28:17.086Z,10.33
2022-07-25T12:30:46.179Z,9.90
2022-07-25T12:33:14.117Z,10.60
2022-07-25T12:35:43.037Z,10.13
2022-07-25T12:38:11.464Z,10.40
2022-07-25T12:40:39.408Z,10.33
2022-07-25T12:43:06.842Z,10.33
2022-07-25T12:45:34.065Z,11.17
2022-07-25T12:48:01.300Z,11.23
2022-07-25T12:50:28.378Z,10.50
2022-07-25T12:52:55.563Z,10.10
2022-07-25T12:55:23.023Z,10.33
2022-07-25T12:57:51.367Z,10.63
2022-07-25T13:00:22.367Z,10.30
2022-07-25T13:02:52.164Z,10.97
2022-07-25T13:05:20.697Z,9.50
2022-07-25T13:07:49.587Z,10.53
2022-07-25T13:10:18.165Z,11.03
2022-07-25T13:12:46.169Z,11.37
2022-07-25T13:15:13.232Z,11.77
2022-07-25T13:17:40.939Z,11.10
2022-07-25T13:20:10.072Z,11.47
2022-07-25T13:22:37.563Z,11.10
2022-07-25T13:25:05.493Z,11.47
2022-07-25T13:27:32.752Z,11.87
2022-07-25T13:29:59.905Z,11.80
2022-07-25T13:32:28.590Z,12.07
2022-07-25T13:34:55.999Z,12.40
2022-07-25T13:37:23.609Z,11.30
2022-07-25T13:39:50.731Z,11.27
2022-07-25T13:42:17.717Z,12.27
2022-07-25T13:44:44.757Z,11.33
2022-07-25T13:47:11.934Z,12.00
2022-07-25T13:49:39.193Z,11.17
2022-07-25T13:52:06.783Z,11.43
2022-07-25T13:54:33.961Z,11.23
2022-07-25T13:57:03.803Z,12.30
2022-07-25T13:59:31.118Z,11.13
2022-07-25T14:01:58.164Z,11.83
2022-07-25T14:04:25.348Z,11.40
2022-07-25T14:06:52.489Z,10.97
2022-07-25T14:09:23.169Z,11.20
2022-07-25T14:11:50.259Z,11.80
2022-07-25T14:14:18.154Z,11.90
2022-07-25T14:16:45.363Z,15.50
2022-07-25T14:19:12.696Z,10.63
2022-07-25T14:21:39.797Z,11.17
2022-07-25T14:24:07.962Z,10.90
2022-07-25T14:26:35.887Z,10.80
2022-07-25T14:29:04.522Z,10.70
2022-07-25T14:31:33.132Z,11.20
2022-07-25T14:34:00.362Z,11.40
2022-07-25T14:36:28.207Z,10.13
2022-07-25T14:38:55.370Z,10.37
2022-07-25T14:41:22.385Z,10.40
2022-07-25T14:43:49.875Z,10.90
2022-07-25T14:46:17.007Z,10.43
2022-07-25T14:48:44.217Z,10.50
2022-07-25T14:51:11.333Z,10.60
2022-07-25T14:53:39.128Z,10.77
2022-07-25T14:56:06.793Z,11.73
2022-07-25T14:58:34.307Z,9.83
2022-07-25T15:01:02.200Z,9.67
2022-07-25T15:03:29.326Z,9.73
2022-07-25T15:05:56.626Z,10.13
2022-07-25T15:08:23.749Z,9.23
2022-07-25T15:10:51.329Z,10.10
2022-07-25T15:13:31.023Z,9.10
2022-07-25T15:15:59.563Z,9.50
2022-07-25T15:18:27.177Z,9.57
2022-07-25T15:20:55.473Z,9.63
2022-07-25T15:23:25.529Z,10.50
2022-07-25T15:26:01.693Z,9.90
2022-07-25T15:28:32.269Z,9.40
2022-07-25T15:30:59.544Z,9.73
2022-07-25T15:33:26.808Z,11.93
2022-07-25T15:35:55.278Z,10.13
2022-07-25T15:38:22.518Z,16.20
2022-07-25T15:40:49.658Z,10.10
2022-07-25T15:43:17.518Z,9.73
2022-07-25T15:45:46.526Z,9.83
2022-07-25T15:48:16.862Z,10.00
2022-07-25T15:50:50.043Z,10.60
2022-07-25T15:53:17.902Z,10.70
2022-07-25T15:55:44.958Z,10.90
2022-07-25T15:58:12.918Z,11.33
2022-07-25T16:00:41.628Z,10.50
2022-07-25T16:03:10.132Z,11.13
2022-07-25T16:05:38.772Z,16.13
2022-07-25T16:08:08.596Z,10.00
2022-07-25T16:10:35.924Z,10.20
2022-07-25T16:13:03.092Z,11.60
2022-07-25T16:15:30.323Z,10.53
2022-07-25T16:18:02.109Z,10.10
2022-07-25T16:20:34.325Z,11.17
2022-07-25T16:23:01.815Z,11.07
2022-07-25T16:25:30.788Z,10.90
2022-07-25T16:28:00.121Z,11.20
2022-07-25T16:30:28.310Z,11.37
2022-07-25T16:32:56.068Z,11.13
2022-07-25T16:35:23.480Z,10.43
2022-07-25T16:37:51.649Z,10.70
2022-07-25T16:40:18.779Z,10.87
2022-07-25T16:42:49.518Z,10.70
2022-07-25T16:45:16.842Z,11.13
2022-07-25T16:47:44.618Z,11.37
2022-07-25T16:50:11.700Z,10.90
2022-07-25T16:52:38.703Z,11.10
2022-07-25T16:55:06.322Z,11.93
2022-07-25T16:57:33.476Z,10.37
2022-07-25T17:00:01.034Z,11.60
2022-07-25T17:02:29.877Z,11.67
2022-07-25T17:04:58.498Z,10.90
2022-07-25T17:07:26.524Z,11.60
2022-07-25T17:09:54.123Z,11.83
2022-07-25T17:12:21.738Z,11.73
2022-07-25T17:14:49.061Z,11.57
2022-07-25T17:17:16.099Z,10.77
2022-07-25T17:19:43.332Z,10.73
2022-07-25T17:22:11.129Z,11.30
2022-07-25T17:24:39.577Z,11.83
2022-07-25T17:27:08.400Z,11.10
2022-07-25T17:29:36.983Z,11.53
2022-07-25T17:32:07.106Z,12.07
2022-07-25T17:34:34.472Z,11.63
2022-07-25T17:37:03.164Z,11.13
2022-07-25T17:39:34.669Z,11.87
2022-07-25T17:42:02.305Z,10.70
2022-07-25T17:44:29.307Z,10.30
2022-07-25T17:46:56.538Z,11.60
2022-07-25T17:49:23.806Z,11.13
2022-07-25T17:51:50.978Z,11.60
2022-07-25T17:54:18.228Z,11.20
2022-07-25T17:56:45.718Z,12.10
2022-07-25T17:59:13.830Z,12.90
2022-07-25T18:01:41.253Z,11.67
2022-07-25T18:04:09.191Z,11.40
2022-07-25T18:06:36.685Z,11.17
2022-07-25T18:09:04.312Z,11.90
2022-07-25T18:11:31.347Z,11.47
2022-07-25T18:13:59.817Z,13.00
2022-07-25T18:16:27.392Z,11.63
2022-07-25T18:18:54.497Z,12.17
2022-07-25T18:21:24.298Z,12.13
2022-07-25T18:23:54.487Z,13.07
2022-07-25T18:26:25.322Z,12.17
2022-07-25T18:28:52.788Z,12.60
2022-07-25T18:31:19.996Z,12.47
2022-07-25T18:33:47.206Z,12.67
2022-07-25T18:36:14.852Z,15.10
2022-07-25T18:38:42.221Z,13.63
2022-07-25T18:41:28.816Z,13.13
2022-07-25T18:43:57.753Z,12.63
2022-07-25T18:46:27.563Z,13.00
2022-07-25T18:48:56.706Z,12.57
2022-07-25T18:51:24.161Z,13.50
2022-07-25T18:53:51.442Z,12.40
2022-07-25T18:56:18.943Z,13.10
2022-07-25T18:58:46.365Z,12.77
2022-07-25T19:01:13.826Z,12.77
2022-07-25T19:03:41.012Z,12.30
2022-07-25T19:06:11.300Z,13.37
2022-07-25T19:08:38.875Z,13.13
2022-07-25T19:11:06.887Z,13.07
2022-07-25T19:13:51.118Z,12.60
2022-07-25T19:16:20.471Z,12.70
2022-07-25T19:18:48.694Z,13.70
2022-07-25T19:21:16.223Z,14.77
2022-07-25T19:23:49.737Z,13.90
2022-07-25T19:26:20.991Z,14.00
2022-07-25T19:28:51.264Z,16.30
2022-07-25T19:31:19.402Z,13.27
2022-07-25T19:33:46.614Z,13.97
2022-07-25T19:36:14.664Z,13.07
2022-07-25T19:38:42.720Z,14.57
2022-07-25T19:41:11.190Z,13.43
2022-07-25T19:43:39.696Z,13.40
2022-07-25T19:46:08.493Z,13.93
2022-07-25T19:48:35.639Z,13.60
2022-07-25T19:51:03.581Z,13.70
2022-07-25T19:53:32.580Z,14.63
2022-07-25T19:56:00.251Z,13.23
2022-07-25T19:58:27.362Z,14.43
2022-07-25T20:00:54.484Z,15.27
2022-07-25T20:03:23.211Z,14.63
2022-07-25T20:05:51.412Z,14.93
2022-07-25T20:08:19.032Z,14.47
2022-07-25T20:10:50.049Z,14.83
2022-07-25T20:13:17.553Z,14.40
2022-07-25T20:15:44.701Z,14.27
2022-07-25T20:18:16.040Z,14.47
2022-07-25T20:20:49.206Z,15.40
2022-07-25T20:23:43.254Z,14.20
2022-07-25T20:26:10.918Z,14.80
2022-07-25T20:28:38.537Z,14.50
2022-07-25T20:31:05.918Z,14.10
2022-07-25T20:33:36.256Z,16.60
2022-07-25T20:36:04.333Z,14.33
2022-07-25T20:38:34.850Z,15.77
2022-07-25T20:41:02.350Z,15.50
2022-07-25T20:43:30.180Z,14.00
2022-07-25T20:45:57.950Z,15.77
2022-07-25T20:48:26.423Z,15.27
2022-07-25T20:50:54.239Z,15.47
2022-07-25T20:53:21.789Z,15.83
2022-07-25T20:55:48.880Z,15.80
2022-07-25T20:58:16.968Z,14.97
2022-07-25T21:00:44.461Z,14.80
2022-07-25T21:03:11.600Z,15.50
2022-07-25T21:05:39.658Z,15.97
2022-07-25T21:08:07.400Z,15.47
2022-07-25T21:10:34.449Z,15.43
2022-07-25T21:13:01.732Z,16.27
2022-07-25T21:15:28.822Z,24.47
2022-07-25T21:17:55.828Z,16.90
2022-07-25T21:20:22.949Z,15.87
2022-07-25T21:22:51.051Z,15.40
2022-07-25T21:25:18.139Z,16.10
2022-07-25T21:27:45.079Z,16.07
2022-07-25T21:30:12.641Z,16.03
2022-07-25T21:32:41.611Z,16.20
2022-07-25T21:35:09.355Z,17.00
2022-07-25T21:37:36.999Z,17.50
2022-07-25T21:40:05.360Z,16.70
2022-07-25T21:42:32.409Z,17.50
2022-07-25T21:45:00.234Z,16.50
2022-07-25T21:47:27.363Z,16.17
2022-07-25T21:50:13.264Z,17.97
2022-07-25T21:52:46.518Z,17.37
2022-07-25T21:55:13.680Z,17.47
2022-07-25T21:57:40.790Z,17.43
2022-07-25T22:00:12.460Z,17.93
2022-07-25T22:02:43.640Z,18.83
2022-07-25T22:05:12.730Z,18.20
2022-07-25T22:07:40.470Z,19.63
2022-07-25T22:10:10.199Z,20.83
2022-07-25T22:12:38.749Z,19.17
2022-07-25T22:15:09.040Z,18.60
2022-07-25T22:17:49.166Z,19.13
2022-07-25T22:20:21.020Z,17.93
2022-07-25T22:22:49.467Z,16.77
2022-07-25T22:25:17.370Z,18.50
2022-07-25T22:27:45.062Z,14.67
2022-07-25T22:30:18.469Z,13.40
2022-07-25T22:32:50.159Z,12.30
2022-07-25T22:35:18.232Z,12.37
2022-07-25T22:37:46.018Z,9.93
2022-07-25T22:40:14.886Z,17.25
2022-07-25T22:42:42.002Z,10.90
2022-07-25T22:45:10.106Z,15.27
2022-07-25T22:47:37.280Z,10.10
2022-07-25T22:50:06.040Z,11.73
2022-07-25T22:52:35.275Z,13.93
2022-07-25T22:55:02.537Z,11.67
2022-07-25T22:57:29.590Z,13.23
2022-07-25T23:00:12.079Z,23.23
2022-07-25T23:02:41.162Z,14.03
2022-07-25T23:05:09.371Z,11.63
2022-07-25T23:07:36.921Z,10.47
2022-07-25T23:10:06.080Z,10.57
2022-07-25T23:12:33.189Z,10.80
2022-07-25T23:15:00.339Z,11.53
2022-07-25T23:17:27.470Z,9.60
2022-07-25T23:19:57.140Z,9.53
2022-07-25T23:22:27.948Z,9.47
2022-07-25T23:24:56.629Z,10.60
2022-07-25T23:27:25.090Z,12.40
2022-07-25T23:29:53.139Z,12.47
2022-07-25T23:32:20.309Z,12.40
2022-07-25T23:34:47.578Z,12.83
2022-07-25T23:37:14.639Z,13.47
2022-07-25T23:39:41.669Z,14.37
2022-07-25T23:42:09.031Z,12.60
2022-07-25T23:44:36.552Z,12.10
2022-07-25T23:47:07.158Z,17.27
2022-07-25T23:49:37.680Z,13.37
2022-07-25T23:52:05.262Z,10.73
2022-07-25T23:54:35.199Z,10.63
2022-07-25T23:57:03.163Z,9.83
2022-07-25T23:59:30.290Z,10.30
